createdAt,value
2022-07-29T01:07:37.813Z,99.90
2022-07-29T01:10:08.752Z,99.90
2022-07-29T01:25:56.003Z,99.90
2022-07-29T01:28:50.246Z,99.90
2022-07-29T01:31:59.279Z,99.90
2022-07-29T01:34:44.027Z,99.90
2022-07-29T01:37:23.109Z,99.90
2022-07-29T01:39:53.371Z,99.90
2022-07-29T01:42:42.696Z,99.90
2022-07-29T01:45:24.496Z,99.90
2022-07-29T01:47:54.184Z,99.90
2022-07-29T01:50:24.441Z,99.90
2022-07-29T01:52:56.996Z,99.90
2022-07-29T01:55:30.732Z,99.90
2022-07-29T01:57:59.946Z,99.90
2022-07-29T02:00:28.525Z,99.90
2022-07-29T02:02:59.110Z,99.90
2022-07-29T02:05:31.642Z,99.90
2022-07-29T02:08:00.187Z,99.90
2022-07-29T02:10:32.181Z,99.90
2022-07-29T05:22:48.294Z,99.90
2022-07-29T05:25:17.120Z,99.90
2022-07-29T05:27:43.891Z,99.90
2022-07-29T05:30:10.982Z,99.90
2022-07-29T05:32:39.995Z,99.90
2022-07-29T05:35:07.441Z,99.90
2022-07-29T05:37:34.755Z,99.90
2022-07-29T05:40:03.046Z,99.90
2022-07-29T05:42:30.187Z,99.90
2022-07-29T05:44:57.255Z,99.90
2022-07-29T05:47:24.456Z,99.90
2022-07-29T05:49:53.626Z,99.90
2022-07-29T05:52:20.735Z,99.90
2022-07-29T05:54:47.844Z,99.90
2022-07-29T05:57:21.899Z,99.90
2022-07-29T05:59:51.720Z,99.90
2022-07-29T06:02:18.833Z,99.90
2022-07-29T06:04:45.672Z,99.90
2022-07-29T06:07:12.462Z,99.90
2022-07-29T06:09:39.211Z,99.90
2022-07-29T06:12:09.085Z,99.90
2022-07-29T06:14:39.181Z,99.90
2022-07-29T06:17:08.661Z,99.90
2022-07-29T06:19:37.198Z,99.90
2022-07-29T06:24:31.650Z,99.90
2022-07-29T06:26:58.549Z,99.90
2022-07-29T06:29:25.536Z,99.90
2022-07-29T06:31:54.496Z,99.90
2022-07-29T06:34:23.511Z,99.90
2022-07-29T06:41:50.478Z,99.90
2022-07-29T06:44:18.843Z,99.90
2022-07-29T06:46:50.954Z,99.90
2022-07-29T06:49:17.944Z,99.90
2022-07-29T06:51:49.714Z,99.90
2022-07-29T06:54:17.245Z,99.90
2022-07-29T06:56:46.509Z,99.90
2022-07-29T06:59:13.970Z,99.90
2022-07-29T07:01:42.945Z,99.90
2022-07-29T07:04:12.672Z,99.90
2022-07-29T07:06:42.325Z,99.90
2022-07-29T07:09:09.069Z,99.90
2022-07-29T07:11:36.303Z,99.90
2022-07-29T07:14:04.360Z,99.90
2022-07-29T07:16:32.574Z,99.90
2022-07-29T07:18:59.661Z,99.90
2022-07-29T07:21:26.448Z,99.90
2022-07-29T07:23:57.168Z,99.90
2022-07-29T07:43:36.698Z,99.90
2022-07-29T07:46:03.548Z,99.90
2022-07-29T07:48:30.423Z,99.90
2022-07-29T07:50:57.170Z,99.90
2022-07-29T07:53:23.928Z,99.90
2022-07-29T07:56:09.978Z,99.90
2022-07-29T08:08:31.032Z,99.90
2022-07-29T08:11:03.121Z,99.90
2022-07-29T08:36:14.228Z,99.90
2022-07-29T08:38:43.255Z,99.90
2022-07-29T08:41:10.205Z,99.90
2022-07-29T08:43:39.363Z,99.90
2022-07-29T08:46:06.275Z,99.90
2022-07-29T08:48:33.422Z,99.90
2022-07-29T08:53:33.097Z,99.90
2022-07-29T08:56:00.206Z,96.20
2022-07-29T08:58:32.026Z,95.30
2022-07-29T09:01:02.383Z,95.20
2022-07-29T09:03:37.166Z,95.00
2022-07-29T09:06:04.979Z,95.60
2022-07-29T09:08:33.600Z,92.80
2022-07-29T09:11:05.599Z,91.20
2022-07-29T09:13:32.581Z,91.20
2022-07-29T09:15:59.390Z,91.20
2022-07-29T09:18:47.084Z,90.90
2022-07-29T09:21:35.051Z,90.00
2022-07-29T09:24:13.795Z,99.90
2022-07-29T09:26:47.368Z,99.90
2022-07-29T09:29:19.267Z,99.90
2022-07-29T09:31:51.147Z,99.90
2022-07-29T09:34:29.460Z,99.70
2022-07-29T09:36:56.867Z,97.00
2022-07-29T09:39:46.696Z,96.20
2022-07-29T09:42:14.384Z,97.00
2022-07-29T09:44:54.204Z,95.80
2022-07-29T09:47:26.826Z,95.00
2022-07-29T09:50:02.094Z,93.80
2022-07-29T09:52:30.806Z,97.80
2022-07-29T09:55:08.076Z,93.30
2022-07-29T09:57:34.868Z,93.40
2022-07-29T10:00:10.554Z,93.30
2022-07-29T10:02:39.170Z,93.40
2022-07-29T10:05:26.654Z,94.00
2022-07-29T10:08:03.321Z,94.10
2022-07-29T10:10:35.180Z,93.90
2022-07-29T10:13:09.943Z,93.70
2022-07-29T10:15:44.215Z,93.40
2022-07-29T10:18:12.988Z,94.50
2022-07-29T10:20:42.440Z,94.90
2022-07-29T10:23:10.385Z,95.50
2022-07-29T10:25:39.256Z,92.90
2022-07-29T10:28:06.993Z,90.90
2022-07-29T10:30:34.022Z,90.50
2022-07-29T10:33:19.447Z,95.10
2022-07-29T10:35:46.204Z,95.10
2022-07-29T10:38:28.074Z,98.60
2022-07-29T10:41:13.350Z,97.00
2022-07-29T10:43:51.359Z,97.70
2022-07-29T10:46:22.273Z,98.00
2022-07-29T10:49:16.298Z,97.90
2022-07-29T10:52:05.710Z,97.80
2022-07-29T10:54:48.381Z,97.40
2022-07-29T10:57:20.745Z,97.30
2022-07-29T11:00:11.741Z,97.10
2022-07-29T11:02:43.795Z,97.60
2022-07-29T11:05:15.674Z,97.10
2022-07-29T11:08:20.259Z,95.60
2022-07-29T11:10:49.065Z,96.30
2022-07-29T11:13:46.540Z,97.50
2022-07-29T11:16:16.128Z,97.60
2022-07-29T11:19:21.618Z,97.20
2022-07-29T11:21:58.301Z,96.50
2022-07-29T11:24:33.277Z,97.80
2022-07-29T11:27:13.205Z,98.00
2022-07-29T11:29:54.786Z,97.90
2022-07-29T11:32:24.889Z,97.70
2022-07-29T11:35:17.022Z,97.20
2022-07-29T11:38:08.449Z,98.30
2022-07-29T11:40:38.586Z,93.70
2022-07-29T11:43:09.333Z,93.00
2022-07-29T11:45:48.052Z,92.80
2022-07-29T11:48:28.641Z,92.90
2022-07-29T11:51:01.116Z,92.50
2022-07-29T11:53:28.944Z,92.30
2022-07-29T11:56:00.288Z,90.60
2022-07-29T11:58:28.436Z,90.50
2022-07-29T12:00:56.330Z,90.10
2022-07-29T12:03:35.400Z,99.90
2022-07-29T12:06:14.284Z,93.70
2022-07-29T12:08:47.368Z,93.90
2022-07-29T12:11:23.650Z,93.40
2022-07-29T12:13:52.240Z,93.40
2022-07-29T12:16:25.331Z,92.90
2022-07-29T12:19:05.885Z,93.10
2022-07-29T12:21:53.715Z,93.10
2022-07-29T12:24:23.672Z,93.60
2022-07-29T12:26:58.875Z,94.20
2022-07-29T12:29:34.945Z,93.60
2022-07-29T12:32:04.300Z,93.10
2022-07-29T12:34:34.619Z,92.40
2022-07-29T12:37:02.177Z,91.50
2022-07-29T12:39:29.371Z,90.00
2022-07-29T12:42:03.781Z,90.60
2022-07-29T12:44:52.483Z,90.70
2022-07-29T12:47:20.396Z,90.00
2022-07-29T12:52:29.786Z,92.10
2022-07-29T12:54:57.188Z,91.70
2022-07-29T12:57:26.876Z,92.90
2022-07-29T13:00:24.046Z,91.70
2022-07-29T13:03:01.689Z,90.70
2022-07-29T13:05:49.183Z,91.20
2022-07-29T13:08:20.391Z,91.50
2022-07-29T13:10:51.800Z,91.10
2022-07-29T13:13:18.695Z,90.70
2022-07-29T13:15:49.579Z,90.60
2022-07-29T13:18:34.665Z,90.60
2022-07-29T13:21:19.140Z,90.30
2022-07-29T13:23:45.914Z,90.70
2022-07-29T13:26:17.221Z,90.60
2022-07-29T13:28:46.199Z,90.90
2022-07-29T13:31:13.067Z,90.60
2022-07-29T13:33:39.911Z,90.50
2022-07-29T13:36:09.143Z,90.60
2022-07-29T13:38:35.804Z,90.70
2022-07-29T13:41:02.601Z,90.80
2022-07-29T13:43:30.163Z,91.30
2022-07-29T13:45:57.200Z,90.50
2022-07-29T13:48:24.029Z,90.50
2022-07-29T13:50:50.874Z,90.10
2022-07-29T13:53:19.711Z,90.20
2022-07-29T13:55:54.168Z,90.50
2022-07-29T13:58:20.893Z,90.80
2022-07-29T14:00:49.779Z,90.00
2022-07-29T14:03:16.672Z,89.90
2022-07-29T14:05:46.142Z,90.10
2022-07-29T14:08:12.874Z,90.00
2022-07-29T14:10:39.640Z,89.70
2022-07-29T14:13:06.475Z,89.80
2022-07-29T14:15:51.669Z,89.60
2022-07-29T14:18:18.384Z,89.20
2022-07-29T14:20:45.200Z,89.90
2022-07-29T14:23:11.958Z,89.80
2022-07-29T14:28:08.101Z,99.90
2022-07-29T14:30:37.102Z,99.90
2022-07-29T14:33:06.228Z,92.90
2022-07-29T14:35:35.302Z,92.20
2022-07-29T14:38:01.965Z,85.00
2022-07-29T14:40:28.719Z,85.60
2022-07-29T14:42:55.643Z,85.90
2022-07-29T14:45:25.168Z,88.50
2022-07-29T14:47:56.454Z,90.70
2022-07-29T14:50:32.025Z,94.50
2022-07-29T14:52:59.747Z,95.10
2022-07-29T14:55:29.149Z,95.20
2022-07-29T14:58:04.602Z,95.00
2022-07-29T15:00:35.003Z,95.80
2022-07-29T15:03:03.062Z,95.80
2022-07-29T15:05:31.224Z,95.80
2022-07-29T15:07:58.748Z,95.90
2022-07-29T15:10:27.956Z,91.90
2022-07-29T15:12:55.001Z,91.00
2022-07-29T15:15:24.320Z,90.10
2022-07-29T15:17:53.324Z,90.20
2022-07-29T15:20:20.468Z,90.10
2022-07-29T15:22:47.197Z,90.40
2022-07-29T15:25:18.407Z,90.00
2022-07-29T15:27:49.048Z,90.00
2022-07-29T15:30:32.771Z,89.60
2022-07-29T15:33:01.557Z,89.50
2022-07-29T15:35:31.262Z,89.50
2022-07-29T15:37:58.083Z,91.40
2022-07-29T15:40:24.869Z,91.40
2022-07-29T15:42:53.879Z,91.10
2022-07-29T15:45:23.087Z,91.30
2022-07-29T15:47:49.706Z,92.10
2022-07-29T15:50:20.046Z,95.20
2022-07-29T15:52:47.054Z,96.20
2022-07-29T15:55:15.483Z,95.90
2022-07-29T15:57:44.370Z,94.50
2022-07-29T16:00:11.707Z,94.30
2022-07-29T16:02:38.423Z,93.80
2022-07-29T16:05:05.553Z,94.00
2022-07-29T16:07:39.080Z,93.20
2022-07-29T16:10:07.809Z,93.10
2022-07-29T16:12:34.538Z,93.50
2022-07-29T16:15:09.422Z,93.40
2022-07-29T16:17:37.701Z,93.50
2022-07-29T16:20:06.059Z,92.80
2022-07-29T16:22:32.836Z,93.50
2022-07-29T16:24:59.676Z,93.00
2022-07-29T16:27:35.398Z,92.60
2022-07-29T16:30:08.210Z,93.60
2022-07-29T16:32:35.184Z,93.00
2022-07-29T16:35:04.997Z,92.80
2022-07-29T16:37:35.467Z,92.50
2022-07-29T16:40:06.775Z,92.00
2022-07-29T16:42:46.628Z,92.10
2022-07-29T16:45:14.220Z,91.90
2022-07-29T16:47:41.010Z,91.80
2022-07-29T16:50:08.958Z,92.10
2022-07-29T16:52:37.508Z,92.10
2022-07-29T16:55:04.876Z,91.20
2022-07-29T16:57:31.588Z,90.60
2022-07-29T17:00:00.595Z,90.50
2022-07-29T17:02:27.439Z,90.80
2022-07-29T17:04:54.247Z,86.70
2022-07-29T17:07:20.949Z,85.30
2022-07-29T17:09:49.007Z,85.00
2022-07-29T17:12:18.264Z,84.20
2022-07-29T17:14:45.040Z,86.50
2022-07-29T17:17:13.747Z,86.80
2022-07-29T17:19:45.155Z,86.00
2022-07-29T17:22:19.051Z,85.40
2022-07-29T17:27:14.860Z,99.90
2022-07-29T17:29:43.985Z,99.90
2022-07-29T17:32:13.221Z,99.90
2022-07-29T17:34:45.272Z,99.90
2022-07-29T17:37:12.398Z,94.80
2022-07-29T17:39:43.152Z,92.80
2022-07-29T17:42:11.894Z,91.60
2022-07-29T17:44:39.172Z,90.10
2022-07-29T17:47:15.575Z,90.40
2022-07-29T17:49:43.894Z,90.30
2022-07-29T17:52:10.794Z,90.20
2022-07-29T17:54:37.516Z,89.80
2022-07-29T17:57:04.349Z,89.40
2022-07-29T17:59:31.193Z,88.70
2022-07-29T18:01:58.069Z,88.80
2022-07-29T18:04:25.443Z,88.60
2022-07-29T18:06:52.156Z,89.80
2022-07-29T18:09:18.896Z,88.90
2022-07-29T18:11:47.484Z,89.40
2022-07-29T18:14:14.448Z,89.40
2022-07-29T18:16:41.289Z,89.70
2022-07-29T18:19:08.069Z,90.00
2022-07-29T18:21:45.911Z,90.60
2022-07-29T18:24:22.032Z,88.20
2022-07-29T18:26:51.086Z,89.20
2022-07-29T18:29:17.811Z,88.50
2022-07-29T18:31:49.487Z,88.90
2022-07-29T18:34:17.076Z,88.80
2022-07-29T18:36:43.911Z,88.80
2022-07-29T18:39:20.696Z,88.70
2022-07-29T18:41:51.592Z,88.20
2022-07-29T18:44:22.679Z,88.20
2022-07-29T18:46:50.713Z,88.30
2022-07-29T18:49:17.712Z,89.20
2022-07-29T19:29:05.308Z,91.80
2022-07-29T19:38:57.427Z,99.90
2022-07-29T19:43:53.728Z,99.90
2022-07-29T19:46:21.682Z,99.90
2022-07-29T19:48:51.276Z,99.90
2022-07-29T19:51:18.074Z,99.90
2022-07-29T19:53:47.064Z,99.90
2022-07-29T19:56:13.778Z,99.90
2022-07-29T20:06:08.552Z,99.90
2022-07-29T20:08:35.333Z,99.90
2022-07-29T20:13:35.265Z,99.90
2022-07-29T20:16:05.622Z,99.90
2022-07-29T20:18:32.599Z,99.90
2022-07-29T20:28:27.638Z,99.90
2022-07-29T20:48:10.505Z,93.50
2022-07-29T20:50:39.510Z,99.90
2022-07-29T20:53:09.295Z,99.90
2022-07-29T21:03:01.849Z,99.90
2022-07-29T21:05:28.728Z,99.90
2022-07-29T21:07:58.186Z,99.90
2022-07-29T23:29:36.918Z,99.20
2022-07-29T23:32:03.933Z,99.70
2022-07-29T23:34:30.725Z,99.80
2022-07-29T23:36:57.700Z,99.90
2022-07-29T23:39:24.654Z,99.90
2022-07-29T23:41:54.113Z,99.90
2022-07-29T23:44:21.019Z,99.90
2022-07-29T23:46:47.813Z,99.90
2022-07-29T23:49:14.763Z,99.90
2022-07-29T23:51:41.585Z,99.90
2022-07-29T23:54:08.351Z,99.90
2022-07-29T23:56:35.109Z,99.90
2022-07-29T23:59:05.656Z,99.90
